Latest Weather Observations for Edinburgh

IDS60801

Issued at 10:41 pm CST Saturday 13 July 2024 (issued every 10 minutes, with the page automatically refreshed every 10 minutes)

About weather observations | Map of weather stations | Latest weather observations for SA | Other Formats
Station Details ID: 023083 Name: EDINBURGH RAAF Lat: -34.71 Lon: 138.62 Height: 16.54 m
Data from the previous 72 hours. | See also: Recent months at Edinburgh
Date/Time
CST
Temp
°C
App
Temp
°C
Dew
Point
°C
Rel
Hum
%
Delta-T
°C
Wind Press
QNH
hPa
Press
MSL
hPa
Rain since
9am
mm
Dir  Spd
km/h
Gust
km/h
Spd
kts
Gust
kts
13/10:38pm 10.3 9.2 10.0 98 0.2 NNW 6 9 3 5 1020.3 1020.3 1.0
13/10:30pm 10.3 9.2 10.0 98 0.2 SSW 6 19 3 10 1020.3 1020.3 1.0
13/10:16pm 9.5 7.6 9.2 98 0.1 N 9 11 5 6 1020.3 1020.3 1.0
13/10:00pm 9.2 6.9 8.9 98 0.1 N 11 13 6 7 1020.2 1020.2 1.0
13/09:30pm 9.4 7.5 9.1 98 0.1 NNE 9 9 5 5 1020.2 1020.2 1.0
13/09:20pm 9.3 7.3 8.8 97 0.2 NNE 9 9 5 5 1020.3 1020.3 1.0
13/09:00pm 9.4 7.5 8.9 97 0.2 NNE 9 11 5 6 1020.3 1020.3 1.0
13/08:48pm 9.7 8.2 9.2 97 0.2 NNE 7 9 4 5 1020.2 1020.2 1.0
13/08:30pm 9.6 8.3 9.1 97 0.2 NNE 6 9 3 5 1020.3 1020.3 1.0
13/08:18pm 9.6 9.4 9.1 97 0.2 CALM 0 0 0 0 1020.2 1020.2 1.0
13/08:00pm 10.1 10.0 9.5 96 0.3 CALM 0 0 0 0 1020.1 1020.1 1.0
13/07:30pm 10.4 10.4 9.8 96 0.3 CALM 0 0 0 0 1020.0 1020.0 1.0
13/07:00pm 11.0 11.1 10.2 95 0.4 CALM 0 0 0 0 1019.9 1019.9 1.0
13/06:33pm 11.3 11.5 10.5 95 0.4 CALM 0 0 0 0 1019.7 1019.7 1.0
13/06:30pm 11.3 11.5 10.5 95 0.4 CALM 0 0 0 0 1019.7 1019.7 1.0
13/06:22pm 11.3 11.5 10.5 95 0.4 CALM 0 0 0 0 1019.7 1019.7 1.0
13/06:00pm 11.3 11.5 10.5 95 0.4 CALM 0 0 0 0 1019.6 1019.6 1.0
13/05:30pm 11.4 10.3 10.6 95 0.4 S 7 11 4 6 1019.4 1019.4 1.0
13/05:00pm 11.7 9.5 10.8 94 0.5 SSW 13 15 7 8 1019.4 1019.4 0.2
13/04:58pm 11.7 9.5 10.8 94 0.5 SSW 13 17 7 9 1019.4 1019.4 0.2
13/04:40pm 11.8 8.8 10.5 92 0.7 SW 17 22 9 12 1019.4 1019.4 0.2
13/04:30pm 12.0 10.5 10.6 91 0.7 SW 9 15 5 8 1019.3 1019.3 0.2
13/04:23pm 11.9 10.3 10.3 90 0.8 WSW 9 13 5 7 1019.3 1019.3 0.2
13/04:09pm 11.8 8.2 10.4 91 0.7 W 20 28 11 15 1019.5 1019.5 0.0
13/04:00pm 12.5 7.7 10.2 86 1.2 W 26 33 14 18 1019.5 1019.5 0.0
13/03:30pm 14.0 10.5 8.6 70 2.7 W 17 20 9 11 1019.2 1019.2 0.0
13/03:00pm 15.2 12.1 8.9 66 3.2 W 15 20 8 11 1019.0 1019.0 0.0
13/02:30pm 14.7 11.5 8.6 67 3.1 W 15 17 8 9 1019.0 1019.0 0.0
13/02:00pm 14.9 11.1 9.7 71 2.7 W 20 24 11 13 1019.0 1019.0 0.0
13/01:30pm 14.7 10.9 9.9 73 2.5 W 20 26 11 14 1019.3 1019.3 0.0
13/01:00pm 14.3 10.5 9.7 74 2.4 WSW 20 24 11 13 1019.7 1019.7 0.0
13/12:30pm 14.0 10.2 9.8 76 2.2 W 20 26 11 14 1020.1 1020.1 0.0
13/12:00pm 14.9 11.6 10.9 77 2.1 W 19 24 10 13 1020.5 1020.5 0.0
13/11:30am 13.7 11.8 10.5 81 1.7 NNW 11 19 6 10 1020.9 1020.9 0.0
13/11:15am 13.8 12.7 10.8 82 1.6 NNW 7 15 4 8 1021.1 1021.1 0.0
13/11:00am 13.1 11.7 10.8 86 1.2 N 9 15 5 8 1021.4 1021.4 0.0
13/10:30am 11.7 10.8 11.4 98 0.2 N 7 13 4 7 1021.5 1021.5 0.0
13/10:00am 11.0 9.5 10.7 98 0.2 N 9 13 5 7 1021.6 1021.6 0.0
13/09:38am 10.8 9.3 10.5 98 0.2 NNE 9 13 5 7 1021.6 1021.6 0.0
13/09:30am 10.7 8.8 10.4 98 0.2 NNE 11 13 6 7 1021.6 1021.6 0.0
13/09:00am 10.4 8.8 10.1 98 0.2 NE 9 11 5 6 1021.3 1021.3 0.4
13/08:30am 10.1 8.8 9.8 98 0.2 NNE 7 9 4 5 1021.1 1021.1 0.4
13/08:00am 9.8 8.0 9.5 98 0.1 NNE 9 11 5 6 1020.9 1020.9 0.4
13/07:30am 9.7 7.5 9.4 98 0.1 NNE 11 13 6 7 1020.4 1020.4 0.4
13/07:00am 9.6 7.0 9.3 98 0.1 NE 13 15 7 8 1020.4 1020.4 0.4
13/06:30am 9.5 7.6 9.2 98 0.1 NE 9 13 5 7 1020.2 1020.2 0.4
13/06:00am 9.4 7.9 9.1 98 0.1 NE 7 9 4 5 1019.8 1019.8 0.4
13/05:30am 9.1 6.7 8.8 98 0.1 NE 11 13 6 7 1019.6 1019.6 0.4
13/05:00am 9.3 7.4 9.0 98 0.1 NNE 9 11 5 6 1019.4 1019.4 0.4
13/04:57am 9.3 7.8 9.0 98 0.1 NNE 7 11 4 6 1019.4 1019.4 0.4
13/04:56am 9.3 7.8 9.0 98 0.1 NNE 7 11 4 6 1019.4 1019.4 0.4
13/04:30am 9.2 7.3 8.9 98 0.1 NNE 9 11 5 6 1019.4 1019.4 0.4
13/04:25am 9.2 7.3 8.9 98 0.1 NNE 9 11 5 6 1019.4 1019.4 0.4
13/04:05am 9.1 7.5 8.8 98 0.1 NNE 7 9 4 5 1019.3 1019.3 0.4
13/04:00am 9.0 7.4 8.7 98 0.1 NNE 7 9 4 5 1019.3 1019.3 0.4
13/03:59am 9.0 7.4 8.7 98 0.1 NNE 7 9 4 5 1019.3 1019.3 0.4
13/03:30am 8.5 6.4 8.1 97 0.2 ENE 9 9 5 5 1019.2 1019.2 0.4
13/03:29am 8.5 6.4 8.1 97 0.2 ENE 9 9 5 5 1019.2 1019.2 0.4
13/03:00am 9.2 7.3 8.9 98 0.1 ENE 9 11 5 6 1019.4 1019.4 0.4
13/02:30am 9.2 7.3 8.9 98 0.1 NE 9 11 5 6 1019.4 1019.4 0.4
13/02:00am 9.3 7.0 9.0 98 0.1 NNE 11 15 6 8 1019.4 1019.4 0.4
13/01:39am 9.4 7.9 9.1 98 0.1 N 7 9 4 5 1019.5 1019.5 0.4
13/01:30am 9.2 7.6 8.9 98 0.1 N 7 9 4 5 1019.5 1019.5 0.4
13/01:20am 9.2 7.6 8.9 98 0.1 N 7 9 4 5 1019.4 1019.4 0.4
13/01:00am 9.6 7.8 9.3 98 0.1 NNE 9 11 5 6 1019.3 1019.3 0.4
13/12:30am 9.2 7.6 8.7 97 0.2 NNE 7 11 4 6 1019.5 1019.5 0.2
13/12:18am 8.9 7.2 8.5 97 0.2 NE 7 9 4 5 1019.6 1019.6 0.2
13/12:00am 8.8 7.1 8.4 97 0.2 NE 7 7 4 4 1019.6 1019.6 0.2
 
Date/Time
CST
Temp
°C
App
Temp
°C
Dew
Point
°C
Rel
Hum
%
Delta-T
°C
Wind Press
QNH
hPa
Press
MSL
hPa
Rain since
9am
mm
Dir  Spd
km/h
Gust
km/h
Spd
kts
Gust
kts
12/11:53pm 8.9 7.2 8.5 97 0.2 NE 7 9 4 5 1019.6 1019.6 0.2
12/11:30pm 8.6 6.8 8.0 96 0.3 NNE 7 7 4 4 1019.7 1019.7 0.2
12/11:00pm 9.0 6.9 8.4 96 0.3 N 9 9 5 5 1019.9 1019.9 0.2
12/10:30pm 10.2 8.8 9.6 96 0.3 N 7 9 4 5 1019.8 1019.8 0.2
12/10:00pm 10.5 9.1 9.7 95 0.4 N 7 7 4 4 1019.7 1019.7 0.2
12/09:30pm 10.5 9.1 9.7 95 0.4 N 7 9 4 5 1019.5 1019.5 0.2
12/09:00pm 10.8 9.7 9.9 94 0.5 N 6 7 3 4 1019.4 1019.4 0.2
12/08:30pm 11.3 10.0 10.0 92 0.7 NNE 7 9 4 5 1019.1 1019.1 0.2
12/08:00pm 11.6 10.6 10.3 92 0.7 NNW 6 7 3 4 1019.0 1019.0 0.2
12/07:30pm 12.2 12.5 10.9 92 0.7 CALM 0 4 0 2 1018.7 1018.7 0.2
12/07:00pm 12.4 11.4 11.0 91 0.7 WSW 7 9 4 5 1018.5 1018.5 0.2
12/06:30pm 12.7 10.1 10.8 88 1.0 W 15 19 8 10 1018.3 1018.3 0.2
12/06:00pm 12.9 11.1 10.8 87 1.1 W 11 13 6 7 1018.1 1018.1 0.2
12/05:30pm 13.0 10.7 10.4 84 1.3 W 13 15 7 8 1017.9 1017.9 0.2
12/05:00pm 14.2 11.1 10.4 78 2.0 W 17 22 9 12 1017.7 1017.7 0.2
12/04:30pm 14.8 11.2 10.0 73 2.5 W 19 28 10 15 1017.6 1017.6 0.2
12/04:00pm 14.7 10.9 9.7 72 2.6 W 20 28 11 15 1017.7 1017.7 0.2
12/03:30pm 15.2 11.5 10.0 71 2.7 W 20 28 11 15 1017.7 1017.7 0.2
12/03:00pm 15.1 11.5 9.9 71 2.7 W 19 26 10 14 1017.7 1017.7 0.2
12/02:30pm 15.1 10.5 9.7 70 2.8 W 24 32 13 17 1017.6 1017.6 0.2
12/02:00pm 15.3 10.6 9.4 68 3.0 W 24 32 13 17 1017.4 1017.4 0.2
12/01:30pm 15.6 11.5 10.2 70 2.8 W 22 30 12 16 1017.5 1017.5 0.2
12/01:00pm 15.5 10.9 10.9 74 2.4 W 26 33 14 18 1017.8 1017.8 0.2
12/12:30pm 15.0 10.8 11.0 77 2.1 WNW 24 32 13 17 1018.3 1018.3 0.2
12/12:19pm 14.6 10.7 10.8 78 2.0 WNW 22 32 12 17 1018.5 1018.5 0.2
12/12:00pm 14.5 11.4 11.7 83 1.5 WNW 19 26 10 14 1018.7 1018.7 0.2
12/11:30am 12.9 10.8 11.0 88 1.0 NNW 13 19 7 10 1019.0 1019.0 0.2
12/11:00am 11.4 8.8 10.8 96 0.3 NNW 15 20 8 11 1019.4 1019.4 0.2
12/10:55am 11.4 8.9 10.9 97 0.3 NNW 15 20 8 11 1019.4 1019.4 0.2
12/10:41am 10.7 8.3 10.2 97 0.3 NNW 13 17 7 9 1019.5 1019.5 0.2
12/10:30am 10.5 8.1 9.9 96 0.3 N 13 17 7 9 1019.6 1019.6 0.2
12/10:00am 10.5 8.4 9.9 96 0.3 NNE 11 17 6 9 1019.3 1019.3 0.2
12/09:45am 10.2 7.7 9.7 97 0.3 NNE 13 15 7 8 1019.2 1019.2 0.0
12/09:30am 9.7 7.5 9.2 97 0.2 NNE 11 15 6 8 1019.0 1019.0 0.0
12/09:19am 9.5 7.2 9.0 97 0.2 N 11 15 6 8 1018.9 1018.9 0.0
12/09:00am 9.5 7.2 8.9 96 0.3 NNE 11 17 6 9 1018.6 1018.6 1.2
12/08:34am 9.0 6.6 8.6 97 0.2 NNE 11 13 6 7 1018.3 1018.3 1.2
12/08:30am 8.9 6.5 8.5 97 0.2 NNE 11 13 6 7 1018.2 1018.2 1.2
12/08:15am 9.0 7.0 8.7 98 0.1 NE 9 11 5 6 1018.1 1018.1 1.2
12/08:00am 8.9 6.5 8.6 98 0.1 NE 11 15 6 8 1018.0 1018.0 1.2
12/07:30am 8.4 6.3 8.1 98 0.1 NE 9 13 5 7 1017.8 1017.8 1.2
12/07:00am 8.7 6.6 8.4 98 0.1 NE 9 11 5 6 1017.6 1017.6 1.2
12/06:55am 9.0 7.0 8.7 98 0.1 NE 9 11 5 6 1017.6 1017.6 1.2
12/06:54am 9.0 7.0 8.7 98 0.1 NE 9 11 5 6 1017.6 1017.6 1.2
12/06:36am 8.9 6.9 8.6 98 0.1 NE 9 11 5 6 1017.6 1017.6 1.0
12/06:30am 8.8 6.8 8.5 98 0.1 NE 9 11 5 6 1017.5 1017.5 1.0
12/06:10am 8.8 6.4 8.5 98 0.1 NNE 11 15 6 8 1017.5 1017.5 0.8
12/06:00am 9.0 6.6 8.7 98 0.1 NNE 11 15 6 8 1017.4 1017.4 0.8
12/05:39am 9.0 7.0 8.7 98 0.1 NNE 9 11 5 6 1017.5 1017.5 0.8
12/05:33am 9.0 6.6 8.7 98 0.1 NE 11 17 6 9 1017.3 1017.3 0.6
12/05:30am 9.0 6.2 8.7 98 0.1 NE 13 17 7 9 1017.2 1017.2 0.6
12/05:15am 9.0 7.0 8.7 98 0.1 ENE 9 13 5 7 1017.1 1017.1 0.2
12/05:00am 9.1 7.1 8.8 98 0.1 NE 9 13 5 7 1017.1 1017.1 0.2
12/04:30am 9.1 7.1 8.8 98 0.1 NNE 9 11 5 6 1017.1 1017.1 0.2
12/04:00am 9.1 6.7 8.8 98 0.1 NNE 11 13 6 7 1017.0 1017.0 0.2
12/03:30am 9.1 6.4 8.8 98 0.1 NNE 13 15 7 8 1016.9 1016.9 0.2
12/03:00am 9.1 6.4 8.8 98 0.1 NNE 13 17 7 9 1016.8 1016.8 0.2
12/02:30am 9.3 6.6 9.0 98 0.1 NE 13 15 7 8 1016.8 1016.8 0.2
12/02:00am 9.0 7.0 8.7 98 0.1 NNE 9 13 5 7 1017.0 1017.0 0.2
12/01:30am 8.5 6.0 8.2 98 0.1 NE 11 11 6 6 1016.8 1016.8 0.2
12/01:00am 8.3 6.1 8.0 98 0.1 NE 9 13 5 7 1016.8 1016.8 0.2
12/12:30am 8.2 5.6 7.9 98 0.1 ENE 11 11 6 6 1016.8 1016.8 0.2
12/12:29am 8.1 5.5 7.8 98 0.1 NE 11 11 6 6 1016.8 1016.8 0.2
12/12:00am 7.7 5.4 7.3 97 0.2 NE 9 9 5 5 1016.9 1016.9 0.2
 
Date/Time
CST
Temp
°C
App
Temp
°C
Dew
Point
°C
Rel
Hum
%
Delta-T
°C
Wind Press
QNH
hPa
Press
MSL
hPa
Rain since
9am
mm
Dir  Spd
km/h
Gust
km/h
Spd
kts
Gust
kts
11/11:30pm 8.0 5.7 7.6 97 0.2 NE 9 9 5 5 1016.8 1016.8 0.2
11/11:00pm 8.3 6.5 7.9 97 0.2 NE 7 9 4 5 1016.8 1016.8 0.2
11/10:30pm 8.2 5.9 7.6 96 0.3 NE 9 11 5 6 1016.9 1016.9 0.2
11/10:25pm 8.1 5.8 7.5 96 0.3 NE 9 11 5 6 1016.8 1016.8 0.2
11/10:00pm 9.0 6.9 8.4 96 0.3 ENE 9 11 5 6 1017.0 1017.0 0.2
11/09:30pm 10.0 8.2 9.4 96 0.3 NE 9 9 5 5 1016.9 1016.9 0.2
11/09:00pm 10.4 9.3 9.8 96 0.3 NNE 6 7 3 4 1016.8 1016.8 0.2
11/08:30pm 10.1 8.6 9.2 94 0.4 NNE 7 9 4 5 1016.7 1016.7 0.2
11/08:00pm 10.7 10.7 9.8 94 0.5 CALM 0 7 0 4 1016.3 1016.3 0.2
11/07:30pm 10.3 10.2 9.4 94 0.4 CALM 0 0 0 0 1016.1 1016.1 0.2
11/07:00pm 10.4 10.3 9.6 95 0.4 CALM 0 6 0 3 1015.8 1015.8 0.2
11/06:30pm 10.1 8.6 9.3 95 0.4 W 7 9 4 5 1015.4 1015.4 0.2
11/06:00pm 10.4 8.5 9.2 92 0.6 W 9 9 5 5 1014.7 1014.7 0.2
11/05:30pm 12.4 10.8 10.1 86 1.2 WSW 9 11 5 6 1014.4 1014.4 0.2
11/05:00pm 13.7 11.5 10.7 82 1.6 WSW 13 19 7 10 1014.1 1014.1 0.2
11/04:30pm 13.8 10.7 10.2 79 1.9 WSW 17 20 9 11 1013.6 1013.6 0.2
11/04:00pm 14.3 10.1 9.7 74 2.4 SW 22 26 12 14 1013.2 1013.2 0.2
11/03:30pm 14.5 10.6 9.5 72 2.6 WSW 20 26 11 14 1013.0 1013.0 0.2
11/03:00pm 14.6 11.4 10.0 74 2.4 SW 17 26 9 14 1012.8 1012.8 0.2
11/02:35pm 13.2 10.0 11.3 88 1.0 WSW 19 24 10 13 1012.5 1012.5 0.2
11/02:30pm 13.1 9.7 11.2 88 1.0 WSW 20 26 11 14 1012.6 1012.6 0.2
11/02:00pm 14.4 10.4 11.9 85 1.3 WNW 24 30 13 16 1012.5 1012.5 0.2
11/01:57pm 14.3 10.2 11.5 83 1.5 WNW 24 30 13 16 1012.5 1012.5 0.2
11/01:56pm 14.4 10.4 11.7 84 1.4 WNW 24 30 13 16 1012.5 1012.5 0.2
11/01:43pm 14.2 10.5 11.5 84 1.4 WNW 22 30 12 16 1012.5 1012.5 0.2
11/01:42pm 14.4 10.8 11.7 84 1.4 WNW 22 30 12 16 1012.5 1012.5 0.2
11/01:30pm 14.4 10.5 12.1 86 1.2 NW 24 32 13 17 1012.5 1012.5 0.2
11/01:00pm 13.1 9.3 11.3 89 1.0 NW 22 33 12 18 1012.7 1012.7 0.2
11/12:35pm 12.9 9.5 11.1 89 0.9 NNW 20 28 11 15 1013.0 1013.0 0.2
11/12:30pm 12.8 9.3 11.0 89 0.9 NNW 20 32 11 17 1013.1 1013.1 0.2
11/12:19pm 12.8 8.2 11.0 89 0.9 NNW 26 32 14 17 1013.2 1013.2 0.2
11/12:00pm 12.4 7.7 10.6 89 0.9 NNW 26 33 14 18 1013.2 1013.2 0.2
11/11:30am 12.3 7.2 10.7 90 0.8 NNW 28 35 15 19 1013.6 1013.6 0.2
11/11:14am 12.1 6.1 10.7 91 0.7 NNW 33 43 18 23 1013.7 1013.7 0.2
11/11:00am 12.0 6.1 10.6 91 0.7 NNW 32 43 17 23 1013.6 1013.6 0.2
11/10:50am 12.1 6.0 10.3 89 0.9 NNW 33 46 18 25 1013.6 1013.6 0.2
11/10:30am 12.2 6.7 10.6 90 0.8 NNW 30 43 16 23 1013.6 1013.6 0.2
11/10:29am 12.2 6.7 10.6 90 0.8 NNW 30 43 16 23 1013.7 1013.7 0.2
11/10:00am 12.0 5.4 10.1 88 1.0 NNW 35 50 19 27 1013.6 1013.6 0.2
11/09:30am 11.8 5.2 10.0 89 0.9 NNW 35 48 19 26 1013.2 1013.2 0.2
11/09:00am 11.9 4.8 9.5 85 1.2 NNW 37 50 20 27 1013.1 1013.1 3.2
11/08:43am 11.8 4.7 9.4 85 1.2 NNW 37 56 20 30 1013.1 1013.1 3.2
11/08:30am 11.7 4.6 9.4 86 1.2 NNW 37 52 20 28 1012.9 1012.9 3.2
11/08:00am 11.7 4.9 9.3 85 1.2 NNW 35 50 19 27 1013.1 1013.1 3.2
11/07:30am 11.5 4.7 9.2 86 1.2 N 35 48 19 26 1012.9 1012.9 3.2
11/07:00am 11.4 5.0 9.3 87 1.1 N 33 44 18 24 1012.6 1012.6 3.2
11/06:30am 12.6 5.2 8.3 75 2.1 N 37 50 20 27 1012.1 1012.1 1.6
11/06:00am 12.3 5.0 8.6 78 1.8 N 37 46 20 25 1011.3 1011.3 1.6
11/05:30am 13.3 6.1 7.7 69 2.8 N 35 52 19 28 1011.6 1011.6 1.6
11/05:00am 12.9 6.8 8.2 73 2.3 N 30 43 16 23 1011.6 1011.6 1.6
11/04:30am 12.5 6.6 9.0 79 1.8 N 30 39 16 21 1012.2 1012.2 1.6
11/04:00am 12.8 6.8 8.5 75 2.1 N 30 41 16 22 1013.1 1013.1 1.4
11/03:30am 12.2 7.4 8.7 79 1.7 N 24 39 13 21 1013.7 1013.7 1.4
11/03:00am 12.0 7.5 8.7 80 1.6 NNE 22 28 12 15 1013.9 1013.9 1.2
11/02:30am 12.1 7.7 8.8 80 1.6 NNE 22 28 12 15 1014.7 1014.7 0.8
11/02:00am 12.3 7.8 8.4 77 1.9 N 22 30 12 16 1015.2 1015.2 0.4
11/01:30am 13.0 8.8 8.1 72 2.4 NNE 20 30 11 16 1015.6 1015.6 0.0
11/01:00am 14.1 10.5 6.9 62 3.5 NNW 15 22 8 12 1015.9 1015.9 0.0
11/12:30am 13.2 9.2 6.5 64 3.2 NNE 17 20 9 11 1014.9 1014.9 0.0
11/12:00am 13.4 8.8 6.3 62 3.4 NE 20 28 11 15 1014.4 1014.4 0.0
 
Date/Time
CST
Temp
°C
App
Temp
°C
Dew
Point
°C
Rel
Hum
%
Delta-T
°C
Wind Press
QNH
hPa
Press
MSL
hPa
Rain since
9am
mm
Dir  Spd
km/h
Gust
km/h
Spd
kts
Gust
kts
10/11:30pm 13.7 9.1 6.3 61 3.5 NNE 20 30 11 16 1015.2 1015.2 0.0
10/11:00pm 13.2 8.7 6.8 65 3.1 NNE 20 32 11 17 1015.8 1015.8 0.0

Other formats

Comma delimited format used in spreadsheet applications
http://www.bom.gov.au/fwo/IDS60801/IDS60801.95676.axf

JavaScript Object Notation format (JSON) in row-major order
http://www.bom.gov.au/fwo/IDS60801/IDS60801.95676.json

Data quality

Most of these data are generated automatically and are frequently updated. Quality checks on data are not normally performed. It is possible for incorrect values to appear. Refer to information at About Latest Weather Observations and please check the disclaimer before using these data.